Time;durP1;ratioP1;P1;durP2;ratioP2;P2;SDS_P1;SDS_P2;PMS_P1;PMS_P2;Temp;Humidity;BMP_temperature;BMP_pressure;BME280_temperature;BME280_humidity;BME280_pressure;Samples;Min_cycle;Max_cycle;Signal;HPM_P1;HPM_P2
2022/05/20 00:02:11;;;;;;;5.05;2.22;;;16.50;85.70;;;;;;4978744;28;20023;-79
2022/05/20 00:04:36;;;;;;;8.93;2.40;;;16.40;86.20;;;;;;4978993;28;20026;-79
2022/05/20 00:07:03;;;;;;;6.78;2.53;;;16.40;87.10;;;;;;4979356;28;20015;-80
2022/05/20 00:09:28;;;;;;;5.65;2.30;;;16.40;87.90;;;;;;4979167;28;20027;-80
2022/05/20 00:11:54;;;;;;;4.90;2.30;;;16.30;88.30;;;;;;4978303;29;20015;-79
2022/05/20 00:14:20;;;;;;;7.18;2.30;;;16.30;89.70;;;;;;4977775;28;20019;-78
2022/05/20 00:16:46;;;;;;;6.97;1.98;;;16.30;90.30;;;;;;4976439;28;20035;-78
2022/05/20 00:19:12;;;;;;;4.28;2.22;;;16.30;90.40;;;;;;4969403;28;20050;-80
2022/05/20 00:21:38;;;;;;;5.57;2.30;;;16.20;90.10;;;;;;4968925;28;20042;-79
2022/05/20 00:24:04;;;;;;;9.38;2.25;;;16.20;90.50;;;;;;4967013;28;20387;-81
2022/05/20 00:26:30;;;;;;;7.63;2.03;;;16.10;90.80;;;;;;4961290;28;20031;-79
2022/05/20 00:28:56;;;;;;;4.05;2.08;;;16.10;90.70;;;;;;4966343;28;20074;-79
2022/05/20 00:31:24;;;;;;;9.27;2.38;;;16.00;91.00;;;;;;4970206;29;20031;-78
2022/05/20 00:33:50;;;;;;;5.38;2.30;;;16.00;91.20;;;;;;4969790;29;20046;-81
2022/05/20 00:36:17;;;;;;;11.00;2.50;;;15.90;91.40;;;;;;4958760;28;20483;-79
2022/05/20 00:38:42;;;;;;;11.43;2.35;;;15.90;91.50;;;;;;4962880;28;20027;-80
2022/05/20 00:41:09;;;;;;;5.25;1.60;;;15.90;91.90;;;;;;4961277;28;20185;-79
2022/05/20 00:43:40;;;;;;;4.80;2.05;;;15.80;92.30;;;;;;4962023;28;20031;-79
2022/05/20 00:46:19;;;;;;;3.00;1.88;;;15.90;92.70;;;;;;4964484;28;20035;-80
2022/05/20 00:48:46;;;;;;;6.65;2.03;;;15.80;93.00;;;;;;4965406;28;20031;-79
2022/05/20 00:51:17;;;;;;;6.68;2.05;;;15.80;93.40;;;;;;4969639;28;20434;-78
2022/05/20 00:54:06;;;;;;;5.03;2.10;;;15.70;93.70;;;;;;4971030;29;20067;-79
2022/05/20 00:56:38;;;;;;;4.20;1.95;;;15.70;93.80;;;;;;4973259;28;20021;-80
2022/05/20 00:59:08;;;;;;;5.25;2.25;;;15.60;93.90;;;;;;4971797;28;20110;-81
2022/05/20 01:01:34;;;;;;;3.20;1.70;;;15.60;94.00;;;;;;4974434;28;20035;-79
2022/05/20 01:04:01;;;;;;;4.18;1.67;;;15.50;94.70;;;;;;4974252;29;20027;-79
2022/05/20 01:06:27;;;;;;;2.85;1.70;;;15.50;94.90;;;;;;4973227;28;20030;-78
2022/05/20 01:08:53;;;;;;;8.35;1.52;;;15.50;94.50;;;;;;4970984;28;20063;-79
2022/05/20 01:11:19;;;;;;;4.70;1.80;;;15.50;95.00;;;;;;4976585;28;20055;-80
2022/05/20 01:13:48;;;;;;;4.88;1.63;;;15.50;94.80;;;;;;4975041;28;20046;-80
2022/05/20 01:16:14;;;;;;;4.30;1.30;;;15.50;94.70;;;;;;4968891;28;20043;-79
2022/05/20 01:18:43;;;;;;;8.98;1.73;;;15.50;94.40;;;;;;4964941;28;20046;-79
2022/05/20 01:21:09;;;;;;;7.25;1.83;;;15.40;94.60;;;;;;4965596;28;20027;-81
2022/05/20 01:23:36;;;;;;;6.63;1.90;;;15.40;94.90;;;;;;4963984;28;20035;-78
2022/05/20 01:26:02;;;;;;;9.13;1.77;;;15.40;95.60;;;;;;4962641;29;20030;-79
2022/05/20 01:28:30;;;;;;;8.48;2.00;;;15.40;95.80;;;;;;4965506;28;20032;-80
2022/05/20 01:30:58;;;;;;;5.47;1.95;;;15.30;96.00;;;;;;4966988;28;20020;-79
2022/05/20 01:33:32;;;;;;;12.75;1.73;;;15.30;96.00;;;;;;4969183;28;20043;-80
2022/05/20 01:36:00;;;;;;;5.00;1.77;;;15.40;95.60;;;;;;4971994;28;20045;-79
2022/05/20 01:38:27;;;;;;;5.45;1.90;;;15.40;96.10;;;;;;4971207;28;20035;-79
2022/05/20 01:41:15;;;;;;;6.65;1.80;;;15.40;96.30;;;;;;4974121;28;20102;-79
2022/05/20 01:44:13;;;;;;;6.57;2.10;;;15.40;96.30;;;;;;4979978;28;20046;-78
2022/05/20 01:46:52;;;;;;;4.82;2.10;;;15.40;96.60;;;;;;4980677;28;20023;-80
2022/05/20 01:49:30;;;;;;;5.68;2.15;;;15.40;97.00;;;;;;4980113;28;20047;-80
2022/05/20 01:52:09;;;;;;;5.18;2.28;;;15.40;97.80;;;;;;4980538;28;20051;-78
2022/05/20 01:55:26;;;;;;;3.50;2.05;;;15.40;98.40;;;;;;4978541;28;20035;-77
2022/05/20 01:58:11;;;;;;;6.30;2.35;;;15.30;98.90;;;;;;4965445;28;20047;-81
2022/05/20 02:00:39;;;;;;;4.50;2.40;;;15.30;99.80;;;;;;4971509;29;20035;-78
2022/05/20 02:03:14;;;;;;;7.22;2.15;;;15.40;99.90;;;;;;4963717;28;20031;-79
2022/05/20 02:05:59;;;;;;;5.20;2.03;;;15.30;99.90;;;;;;4973524;29;20046;-80
2022/05/20 02:08:39;;;;;;;9.35;2.55;;;15.40;99.90;;;;;;4980110;28;20070;-79
2022/05/20 02:11:08;;;;;;;6.00;2.20;;;15.40;99.90;;;;;;4980714;28;20035;-77
2022/05/20 02:13:39;;;;;;;3.55;2.00;;;15.40;99.90;;;;;;4981269;28;20042;-78
2022/05/20 02:16:21;;;;;;;10.70;2.33;;;15.40;99.90;;;;;;4980945;28;20047;-78
2022/05/20 02:19:02;;;;;;;6.65;2.05;;;15.40;99.90;;;;;;4975292;28;20058;-80
2022/05/20 02:21:32;;;;;;;5.03;1.77;;;15.40;99.90;;;;;;4971293;28;20047;-80
2022/05/20 02:24:01;;;;;;;6.60;2.40;;;15.40;99.90;;;;;;4966051;28;20031;-79
2022/05/20 02:26:30;;;;;;;6.88;1.95;;;15.40;99.90;;;;;;4963503;28;20026;-79
2022/05/20 02:29:01;;;;;;;7.68;2.40;;;15.50;99.90;;;;;;4962643;28;20038;-80
2022/05/20 02:31:56;;;;;;;8.55;2.63;;;15.50;99.90;;;;;;4960831;28;20031;-79
2022/05/20 02:34:21;;;;;;;7.13;2.67;;;15.50;99.90;;;;;;4967076;29;20050;-79
2022/05/20 02:36:47;;;;;;;5.68;2.05;;;15.50;99.90;;;;;;4967854;28;20023;-80
2022/05/20 02:39:16;;;;;;;8.18;2.60;;;15.50;99.90;;;;;;4970533;28;20055;-79
2022/05/20 02:41:46;;;;;;;3.53;2.05;;;15.50;99.90;;;;;;4972080;28;20046;-79
2022/05/20 02:44:13;;;;;;;6.57;2.60;;;15.50;99.90;;;;;;4970997;28;20043;-78
2022/05/20 02:46:40;;;;;;;5.47;2.00;;;15.50;99.90;;;;;;4968100;28;20039;-79
2022/05/20 02:49:06;;;;;;;7.53;2.38;;;15.60;99.90;;;;;;4962741;28;20031;-79
2022/05/20 02:51:32;;;;;;;5.40;2.03;;;15.60;99.90;;;;;;4962127;28;20039;-78
2022/05/20 02:53:58;;;;;;;3.40;1.80;;;15.60;99.90;;;;;;4962369;28;20031;-79
2022/05/20 02:56:24;;;;;;;7.53;2.33;;;15.60;99.90;;;;;;4965407;29;20023;-79
2022/05/20 03:04:19;;;;;;;4.70;1.90;;;15.50;99.90;;;;;;4964901;28;20031;-78
2022/05/20 03:06:51;;;;;;;4.45;1.98;;;15.50;99.90;;;;;;4963211;28;20041;-80
2022/05/20 03:09:20;;;;;;;7.07;2.20;;;15.50;99.90;;;;;;4958345;29;20063;-80
2022/05/20 03:11:46;;;;;;;10.88;2.10;;;15.50;99.90;;;;;;4959372;28;20031;-79
2022/05/20 03:14:13;;;;;;;3.55;1.92;;;15.50;99.90;;;;;;4957834;28;20035;-79
2022/05/20 03:16:40;;;;;;;5.45;2.03;;;15.50;99.90;;;;;;4959709;28;20050;-80
2022/05/20 03:19:07;;;;;;;4.90;1.98;;;15.50;99.90;;;;;;4965222;28;20063;-79
2022/05/20 03:21:34;;;;;;;6.07;2.30;;;15.50;99.90;;;;;;4964964;28;20035;-79
2022/05/20 03:24:01;;;;;;;6.45;2.38;;;15.50;99.90;;;;;;4962660;29;20069;-80
2022/05/20 03:26:28;;;;;;;7.32;2.13;;;15.50;99.90;;;;;;4963439;28;20030;-80
2022/05/20 03:28:54;;;;;;;10.10;1.90;;;15.50;99.90;;;;;;4963644;28;20031;-84
2022/05/20 03:31:20;;;;;;;7.30;2.28;;;15.60;99.90;;;;;;4963202;28;20162;-80
2022/05/20 03:33:46;;;;;;;3.15;1.90;;;15.60;99.90;;;;;;4962345;28;20058;-80
2022/05/20 03:36:13;;;;;;;8.07;2.28;;;15.60;99.90;;;;;;4966998;28;20032;-80
2022/05/20 03:38:40;;;;;;;13.63;2.28;;;15.50;99.90;;;;;;4967321;28;20061;-81
2022/05/20 03:41:06;;;;;;;6.10;2.47;;;15.60;99.90;;;;;;4968519;28;20027;-79
2022/05/20 03:43:33;;;;;;;8.30;2.33;;;15.60;99.90;;;;;;4967719;28;20046;-80
2022/05/20 03:45:59;;;;;;;4.50;2.05;;;15.50;99.90;;;;;;4965888;28;20019;-81
2022/05/20 03:48:25;;;;;;;6.88;2.35;;;15.50;99.90;;;;;;4966422;28;20051;-80
2022/05/20 03:50:51;;;;;;;6.43;2.38;;;15.50;99.90;;;;;;4966857;28;20055;-80
2022/05/20 03:53:18;;;;;;;8.63;2.05;;;15.50;99.90;;;;;;4971217;28;20117;-81
2022/05/20 03:55:44;;;;;;;12.18;2.20;;;15.50;99.90;;;;;;4971720;28;20058;-81
2022/05/20 03:58:10;;;;;;;10.23;2.53;;;15.50;99.90;;;;;;4971888;28;20035;-80
2022/05/20 04:03:22;;;;;;;6.07;2.30;;;15.50;99.90;;;;;;4969544;28;20031;-79
2022/05/20 04:05:47;;;;;;;3.42;2.10;;;15.50;99.90;;;;;;4970255;28;20049;-80
2022/05/20 04:08:13;;;;;;;8.25;2.63;;;15.60;99.90;;;;;;4970932;28;20488;-80
2022/05/20 04:10:39;;;;;;;3.03;1.85;;;15.70;99.90;;;;;;4970279;28;20027;-79
2022/05/20 04:13:06;;;;;;;5.07;2.35;;;15.80;99.90;;;;;;4972639;28;20027;-79
2022/05/20 04:15:32;;;;;;;3.88;2.00;;;15.90;99.90;;;;;;4972556;29;20027;-80
2022/05/20 04:17:58;;;;;;;5.75;2.17;;;15.90;99.90;;;;;;4973601;28;20039;-81
2022/05/20 04:20:24;;;;;;;9.55;2.33;;;15.90;99.90;;;;;;4973162;29;20042;-80
2022/05/20 04:22:49;;;;;;;6.10;2.40;;;15.90;99.80;;;;;;4972242;28;20031;-80
2022/05/20 04:25:15;;;;;;;6.25;2.10;;;15.90;99.40;;;;;;4967386;28;20206;-81
2022/05/20 04:27:41;;;;;;;6.03;2.15;;;15.80;99.40;;;;;;4967828;28;20091;-79
2022/05/20 04:30:08;;;;;;;5.90;1.95;;;15.80;99.60;;;;;;4967220;28;20110;-80
2022/05/20 04:32:34;;;;;;;5.95;2.20;;;15.90;99.30;;;;;;4963484;29;20054;-81
2022/05/20 04:35:00;;;;;;;10.38;2.75;;;16.00;98.90;;;;;;4961541;28;20027;-81
2022/05/20 04:37:27;;;;;;;4.75;2.08;;;16.10;99.20;;;;;;4961916;28;20127;-83
2022/05/20 04:39:53;;;;;;;7.43;2.40;;;16.20;99.10;;;;;;4960400;28;20031;-80
2022/05/20 04:47:49;;;;;;;7.75;2.45;;;16.60;98.00;;;;;;4961408;28;20031;-81
2022/05/20 04:50:15;;;;;;;7.60;2.47;;;16.70;97.80;;;;;;4961339;29;20030;-83
2022/05/20 04:52:41;;;;;;;9.75;2.40;;;16.80;98.10;;;;;;4961769;28;20054;-82
2022/05/20 04:55:07;;;;;;;6.13;2.60;;;16.80;98.30;;;;;;4963919;28;20024;-81
2022/05/20 04:57:45;;;;;;;6.78;2.25;;;16.90;98.20;;;;;;4968190;28;20043;-83
2022/05/20 05:00:21;;;;;;;8.20;3.10;;;17.00;97.70;;;;;;4969433;29;20038;-82
2022/05/20 05:02:47;;;;;;;11.13;2.17;;;17.10;97.70;;;;;;4971296;29;20103;-80
2022/05/20 05:05:16;;;;;;;6.85;2.60;;;17.20;97.90;;;;;;4963063;29;20023;-82
2022/05/20 05:07:45;;;;;;;6.53;2.28;;;17.20;97.90;;;;;;4961470;28;20118;-81
2022/05/20 05:10:13;;;;;;;9.65;2.67;;;17.40;97.80;;;;;;4960091;28;20016;-82
2022/05/20 05:12:39;;;;;;;9.90;2.85;;;17.40;97.90;;;;;;4959457;29;20046;-81
2022/05/20 05:15:06;;;;;;;14.85;2.95;;;17.60;97.90;;;;;;4962695;28;20054;-80
2022/05/20 05:20:20;;;;;;;8.95;2.10;;;17.60;97.90;;;;;;4962559;28;20079;-82
2022/05/20 05:22:47;;;;;;;9.75;3.20;;;17.60;98.00;;;;;;4959854;28;20035;-83
2022/05/20 05:25:14;;;;;;;13.88;7.53;;;17.70;98.10;;;;;;4960765;29;20103;-83
2022/05/20 05:27:40;;;;;;;11.13;5.22;;;17.70;98.20;;;;;;4960000;28;20572;-82
2022/05/20 05:30:07;;;;;;;11.05;3.35;;;17.70;98.30;;;;;;4961467;28;20097;-82
2022/05/20 05:32:35;;;;;;;13.07;2.75;;;17.70;98.30;;;;;;4963396;28;20027;-82
2022/05/20 05:35:01;;;;;;;8.23;2.60;;;17.70;98.30;;;;;;4963356;28;20070;-82
2022/05/20 05:37:27;;;;;;;5.22;2.80;;;17.70;98.40;;;;;;4964849;28;20031;-84
2022/05/20 05:39:53;;;;;;;10.60;2.40;;;17.80;98.50;;;;;;4963225;28;20081;-82
2022/05/20 05:42:20;;;;;;;13.90;3.25;;;17.80;98.30;;;;;;4969684;28;20050;-80
2022/05/20 05:44:47;;;;;;;6.93;3.05;;;18.00;98.00;;;;;;4973996;28;20034;-82
2022/05/20 05:47:12;;;;;;;9.68;3.20;;;18.10;98.00;;;;;;4973002;28;20034;-80
2022/05/20 05:49:38;;;;;;;9.40;3.10;;;18.30;97.90;;;;;;4972917;28;20032;-81
2022/05/20 05:52:04;;;;;;;9.77;2.47;;;18.60;97.60;;;;;;4973419;28;20066;-79
2022/05/20 05:54:32;;;;;;;10.45;3.38;;;19.00;97.10;;;;;;4971775;29;20110;-82
2022/05/20 05:56:58;;;;;;;11.35;3.00;;;19.10;96.90;;;;;;4966484;28;20039;-83
2022/05/20 05:59:24;;;;;;;7.00;2.92;;;19.30;96.60;;;;;;4965064;28;20043;-83
2022/05/20 06:01:49;;;;;;;6.70;2.78;;;19.30;96.30;;;;;;4963281;29;20487;-82
2022/05/20 06:04:15;;;;;;;10.70;2.75;;;19.50;96.20;;;;;;4964074;28;20075;-82
2022/05/20 06:06:41;;;;;;;12.38;3.30;;;19.50;96.10;;;;;;4970054;28;20468;-83
2022/05/20 06:09:07;;;;;;;8.25;3.22;;;19.50;95.90;;;;;;4964090;28;20019;-81
2022/05/20 06:11:32;;;;;;;13.90;3.70;;;19.60;96.00;;;;;;4963909;28;20034;-82
2022/05/20 06:13:58;;;;;;;9.80;3.03;;;19.50;96.00;;;;;;4964410;28;20027;-82
2022/05/20 06:16:24;;;;;;;19.38;3.65;;;19.50;96.10;;;;;;4963566;28;20027;-82
2022/05/20 06:18:51;;;;;;;16.13;3.80;;;19.60;96.10;;;;;;4964647;28;20039;-83
2022/05/20 06:21:17;;;;;;;22.10;8.23;;;19.70;96.20;;;;;;4964078;28;20118;-81
2022/05/20 06:23:43;;;;;;;14.20;4.57;;;19.80;96.20;;;;;;4963742;29;20073;-81
2022/05/20 06:26:08;;;;;;;17.10;4.15;;;19.80;95.80;;;;;;4963543;28;20027;-82
2022/05/20 06:28:34;;;;;;;12.70;3.40;;;20.10;95.70;;;;;;4963559;28;20083;-81
2022/05/20 06:31:00;;;;;;;14.50;3.30;;;20.30;95.40;;;;;;4962640;29;20031;-82
2022/05/20 06:33:25;;;;;;;11.45;3.83;;;20.30;95.60;;;;;;4963220;28;20047;-82
2022/05/20 06:41:20;;;;;;;15.93;3.90;;;20.70;95.40;;;;;;4962808;28;20271;-81
2022/05/20 06:43:46;;;;;;;9.98;3.60;;;20.80;95.30;;;;;;4963189;28;20037;-81
2022/05/20 06:46:12;;;;;;;18.40;3.90;;;20.80;95.20;;;;;;4977571;28;20039;-82
2022/05/20 06:48:47;;;;;;;10.57;3.97;;;20.90;95.10;;;;;;4973152;28;20038;-82
2022/05/20 06:51:17;;;;;;;12.18;3.80;;;21.00;95.10;;;;;;4964031;28;20062;-80
2022/05/20 06:53:43;;;;;;;9.73;3.22;;;21.00;95.00;;;;;;4965770;28;20399;-83
2022/05/20 06:56:10;;;;;;;11.70;3.83;;;21.00;95.00;;;;;;4961614;28;20042;-82
2022/05/20 06:58:36;;;;;;;21.35;4.82;;;21.10;95.00;;;;;;4967882;28;20050;-82
2022/05/20 07:01:03;;;;;;;10.55;3.58;;;21.00;95.10;;;;;;4970351;28;20028;-82
2022/05/20 07:03:30;;;;;;;7.63;3.90;;;21.10;95.00;;;;;;4963497;28;20380;-81
2022/05/20 07:05:56;;;;;;;9.77;3.67;;;21.20;95.10;;;;;;4963403;28;20051;-82
2022/05/20 07:08:22;;;;;;;8.02;3.67;;;21.30;95.10;;;;;;4963171;28;20035;-81
2022/05/20 07:10:48;;;;;;;11.30;3.50;;;21.40;95.00;;;;;;4964319;29;20027;-82
2022/05/20 07:13:14;;;;;;;16.80;3.67;;;21.50;94.90;;;;;;4971855;28;20067;-83
2022/05/20 07:15:40;;;;;;;9.95;3.42;;;21.60;94.80;;;;;;4972134;28;20035;-81
2022/05/20 07:18:06;;;;;;;12.80;3.70;;;21.80;94.60;;;;;;4967145;28;20049;-83
2022/05/20 07:20:32;;;;;;;16.00;3.72;;;21.90;94.50;;;;;;4962711;29;20082;-81
2022/05/20 07:22:57;;;;;;;11.77;3.63;;;22.00;94.50;;;;;;4962014;29;20063;-82
2022/05/20 07:25:23;;;;;;;11.43;3.80;;;21.90;94.40;;;;;;4963409;28;20050;-83
2022/05/20 07:27:49;;;;;;;12.43;3.85;;;21.80;94.80;;;;;;4962572;28;20047;-82
2022/05/20 07:30:16;;;;;;;10.55;3.72;;;21.90;94.70;;;;;;4970720;28;20174;-81
2022/05/20 07:32:42;;;;;;;15.38;4.78;;;22.00;94.70;;;;;;4967676;28;20032;-82
2022/05/20 07:35:09;;;;;;;22.48;4.50;;;21.90;95.00;;;;;;4974744;28;20041;-83
2022/05/20 07:37:35;;;;;;;20.42;6.07;;;21.80;95.30;;;;;;4972902;28;20038;-80
2022/05/20 07:40:02;;;;;;;18.58;4.10;;;21.80;95.70;;;;;;4964197;29;20389;-82
2022/05/20 07:42:28;;;;;;;17.88;4.40;;;21.90;95.50;;;;;;4964070;29;20038;-82
2022/05/20 07:44:54;;;;;;;12.35;3.92;;;22.10;95.50;;;;;;4964922;29;20019;-83
2022/05/20 07:47:20;;;;;;;16.30;4.68;;;22.20;95.60;;;;;;4965093;28;20031;-84
2022/05/20 07:49:47;;;;;;;18.17;5.95;;;22.10;95.60;;;;;;4965839;28;20030;-81
2022/05/20 07:53:19;;;;;;;17.23;4.60;;;22.10;96.00;;;;;;4967401;29;20039;-83
2022/05/20 07:55:01;;;;;;;14.00;4.10;;;22.10;96.30;;;;;;4975447;29;20041;-82
2022/05/20 07:57:28;;;;;;;12.90;4.80;;;22.30;96.30;;;;;;4974287;28;20038;-81
2022/05/20 07:59:54;;;;;;;19.85;3.90;;;22.40;96.20;;;;;;4968889;28;20098;-83
2022/05/20 08:02:26;;;;;;;16.45;3.85;;;22.50;96.20;;;;;;4974245;28;20015;-82
2022/05/20 08:04:58;;;;;;;12.35;3.97;;;22.80;95.80;;;;;;4973094;28;20043;-81
2022/05/20 08:07:34;;;;;;;16.98;4.55;;;23.10;95.70;;;;;;4972214;28;20039;-81
2022/05/20 08:10:02;;;;;;;20.75;5.07;;;23.20;95.50;;;;;;4973033;28;20111;-82
2022/05/20 08:12:28;;;;;;;14.85;4.82;;;23.20;95.60;;;;;;4977054;28;20012;-82
2022/05/20 08:14:54;;;;;;;14.43;5.50;;;23.30;95.60;;;;;;4978446;28;20051;-83
2022/05/20 08:17:24;;;;;;;16.70;4.60;;;23.50;95.60;;;;;;4976840;28;20102;-83
2022/05/20 08:19:51;;;;;;;14.18;4.78;;;23.70;95.60;;;;;;4975746;28;20035;-81
2022/05/20 08:22:22;;;;;;;18.40;4.82;;;23.80;95.10;;;;;;4973967;28;20063;-81
2022/05/20 08:24:57;;;;;;;12.18;4.03;;;24.00;95.00;;;;;;4977406;28;20046;-82
2022/05/20 08:27:25;;;;;;;17.42;4.85;;;24.20;94.90;;;;;;4977746;28;20058;-81
2022/05/20 08:29:52;;;;;;;13.68;5.53;;;24.50;94.70;;;;;;4977475;28;20022;-83
2022/05/20 08:32:18;;;;;;;15.80;5.20;;;24.60;94.50;;;;;;4978218;28;20030;-82
2022/05/20 08:34:45;;;;;;;9.40;4.18;;;24.80;94.50;;;;;;4977195;28;20065;-83
2022/05/20 08:37:12;;;;;;;10.18;4.57;;;25.00;94.30;;;;;;4977932;28;20031;-82
2022/05/20 08:39:38;;;;;;;12.63;5.00;;;25.10;94.20;;;;;;4976882;28;20023;-81
2022/05/20 08:42:10;;;;;;;16.15;4.97;;;25.20;94.20;;;;;;4976955;28;20043;-80
2022/05/20 08:44:36;;;;;;;14.90;4.75;;;25.20;94.20;;;;;;4976226;28;20042;-82
2022/05/20 08:47:24;;;;;;;16.13;5.18;;;25.20;94.40;;;;;;4973881;28;20062;-84
2022/05/20 08:50:06;;;;;;;18.50;5.07;;;25.30;94.40;;;;;;4971738;28;20027;-82
2022/05/20 08:52:32;;;;;;;18.60;5.05;;;25.30;94.70;;;;;;4971551;28;20043;-81
2022/05/20 08:54:58;;;;;;;16.60;5.13;;;25.30;94.60;;;;;;4971742;28;20027;-80
2022/05/20 08:57:28;;;;;;;11.40;4.65;;;25.40;94.70;;;;;;4968868;28;20086;-82
2022/05/20 08:59:54;;;;;;;9.55;4.97;;;25.40;94.80;;;;;;4966175;28;20038;-82
2022/05/20 09:02:21;;;;;;;13.10;4.82;;;25.30;95.50;;;;;;4964922;28;20094;-83
2022/05/20 09:04:48;;;;;;;7.63;4.32;;;25.40;95.20;;;;;;4962265;28;20027;-81
2022/05/20 09:07:17;;;;;;;10.25;4.10;;;25.60;95.00;;;;;;4966771;28;20027;-80
2022/05/20 09:09:55;;;;;;;10.88;4.22;;;25.80;94.60;;;;;;4967238;28;20059;-80
2022/05/20 09:12:24;;;;;;;16.88;4.93;;;25.80;94.60;;;;;;4967725;28;20035;-82
2022/05/20 09:18:08;;;;;;;13.02;4.50;;;25.90;94.90;;;;;;5021217;23;20042;-89
2022/05/20 09:20:44;;;;;;;11.65;4.25;;;26.10;94.40;;;;;;5008727;28;20046;-90
2022/05/20 09:23:12;;;;;;;7.75;4.22;;;26.20;94.30;;;;;;5015949;28;20035;-87
2022/05/20 09:25:46;;;;;;;12.55;4.28;;;26.30;94.30;;;;;;5017334;28;20018;-90
2022/05/20 09:28:21;;;;;;;9.32;4.25;;;26.30;94.10;;;;;;5017063;28;20030;-89
2022/05/20 09:30:50;;;;;;;10.65;4.10;;;26.30;94.10;;;;;;5017230;28;20065;-89
2022/05/20 09:33:24;;;;;;;9.52;4.18;;;26.40;94.00;;;;;;4997136;28;20030;-89
2022/05/20 09:35:58;;;;;;;8.47;4.07;;;26.60;93.90;;;;;;5016487;28;20061;-89
2022/05/20 09:38:41;;;;;;;13.95;4.30;;;27.10;93.50;;;;;;5021385;28;20015;-88
2022/05/20 09:41:11;;;;;;;8.57;3.58;;;27.60;92.50;;;;;;5020919;28;20122;-89
2022/05/20 09:43:40;;;;;;;6.63;4.10;;;28.30;91.70;;;;;;5021473;28;20065;-87
2022/05/20 09:46:33;;;;;;;8.65;3.55;;;29.20;91.00;;;;;;5021644;28;20042;-90
2022/05/20 09:49:05;;;;;;;54.63;4.07;;;30.40;88.60;;;;;;5015790;28;20051;-89
2022/05/20 09:51:38;;;;;;;5.88;3.58;;;31.80;84.60;;;;;;5011279;28;20034;-88
2022/05/20 09:54:28;;;;;;;6.22;2.78;;;32.60;81.40;;;;;;5019652;28;20042;-89
2022/05/20 09:57:15;;;;;;;4.65;2.63;;;33.20;78.50;;;;;;5020150;28;20022;-89
2022/05/20 10:00:09;;;;;;;5.32;3.00;;;33.50;76.00;;;;;;5019710;28;20125;-89
2022/05/20 10:02:52;;;;;;;7.88;2.10;;;34.90;73.80;;;;;;5020606;28;20046;-88
2022/05/20 10:05:46;;;;;;;4.43;2.17;;;36.10;70.50;;;;;;5020113;28;20214;-91
2022/05/20 10:08:25;;;;;;;2.65;2.22;;;36.80;67.60;;;;;;5020064;28;20026;-88
2022/05/20 10:11:25;;;;;;;4.95;2.45;;;37.50;65.30;;;;;;5019385;28;20066;-88
2022/05/20 10:14:09;;;;;;;3.22;2.42;;;38.50;62.70;;;;;;5019316;28;20023;-88
2022/05/20 10:17:00;;;;;;;3.45;2.28;;;39.30;60.60;;;;;;5020188;28;20022;-90
2022/05/20 10:19:48;;;;;;;5.35;2.05;;;40.80;57.90;;;;;;5019145;28;20042;-88
2022/05/20 10:22:32;;;;;;;3.80;2.00;;;40.80;55.90;;;;;;5003065;28;20030;-89
2022/05/20 10:25:01;;;;;;;;;;;41.40;55.20;;;;;;5018115;28;20061;-89
2022/05/20 10:27:57;;;;;;;10.48;2.10;;;40.90;54.20;;;;;;5010761;28;19905;-89
2022/05/20 10:33:41;;;;;;;7.38;2.40;;;42.30;52.80;;;;;;5012453;28;20033;-91
2022/05/20 10:36:32;;;;;;;3.40;2.42;;;43.40;51.50;;;;;;5008128;28;20018;-90
2022/05/20 10:39:08;;;;;;;6.60;2.22;;;42.90;51.10;;;;;;5013752;28;20068;-90
2022/05/20 10:42:00;;;;;;;5.32;2.20;;;43.20;50.60;;;;;;5013471;28;20132;-90
2022/05/20 10:50:31;;;;;;;8.23;2.53;;;44.80;48.80;;;;;;5013465;28;20033;-89
2022/05/20 10:53:12;;;;;;;6.20;2.33;;;44.40;48.60;;;;;;5010955;28;20065;-87
2022/05/20 10:56:12;;;;;;;5.97;2.35;;;44.60;48.40;;;;;;5013740;28;20115;-89
2022/05/20 10:59:12;;;;;;;6.30;2.00;;;45.20;48.10;;;;;;5017446;28;20038;-89
2022/05/20 11:01:50;;;;;;;2.35;2.13;;;46.20;47.10;;;;;;5017165;28;20088;-89
2022/05/20 11:04:41;;;;;;;4.93;2.33;;;46.50;46.50;;;;;;5016308;28;20045;-88
2022/05/20 11:07:37;;;;;;;5.43;2.17;;;46.70;46.20;;;;;;5015039;28;20018;-88
2022/05/20 11:10:34;;;;;;;2.67;2.30;;;46.40;45.80;;;;;;5014898;28;20061;-89
2022/05/20 11:13:22;;;;;;;2.33;2.08;;;45.10;46.30;;;;;;5012515;28;20054;-88
2022/05/20 11:16:18;;;;;;;5.80;2.70;;;44.10;46.60;;;;;;5014810;28;20026;-89
2022/05/20 11:19:01;;;;;;;3.28;2.20;;;43.50;47.30;;;;;;5015791;28;20054;-89
2022/05/20 11:21:48;;;;;;;4.45;2.35;;;43.70;47.10;;;;;;5017314;28;20049;-90
2022/05/20 11:24:47;;;;;;;4.13;2.58;;;44.00;46.80;;;;;;5016214;28;20102;-89
2022/05/20 11:27:13;;;;;;;4.28;2.13;;;45.10;46.20;;;;;;5014905;28;20053;-88
2022/05/20 11:30:02;;;;;;;5.85;2.22;;;44.60;46.40;;;;;;5016483;28;20034;-90
2022/05/20 11:32:53;;;;;;;2.25;2.05;;;43.70;46.70;;;;;;5015528;28;20040;-91
2022/05/20 11:35:27;;;;;;;2.92;2.22;;;43.20;47.30;;;;;;5019010;28;20042;-89
2022/05/20 11:38:26;;;;;;;4.00;2.50;;;44.40;46.70;;;;;;5016005;28;20097;-89
2022/05/20 11:40:59;;;;;;;4.40;2.45;;;44.90;46.20;;;;;;5010275;28;20042;-89
2022/05/20 11:43:45;;;;;;;3.30;2.10;;;45.40;46.00;;;;;;5018003;28;20042;-89
2022/05/20 11:46:36;;;;;;;4.53;2.30;;;45.60;45.70;;;;;;5018817;28;20077;-89
2022/05/20 11:49:43;;;;;;;6.07;2.30;;;45.90;45.40;;;;;;5018958;28;20042;-90
2022/05/20 11:52:43;;;;;;;4.72;2.00;;;45.30;45.50;;;;;;5018695;28;20034;-89
2022/05/20 11:55:15;;;;;;;3.63;2.50;;;45.70;45.50;;;;;;4974998;28;20040;-88
2022/05/20 11:57:50;;;;;;;2.78;2.17;;;46.20;45.00;;;;;;5017653;28;20030;-89
2022/05/20 12:00:19;;;;;;;6.35;2.22;;;46.60;44.60;;;;;;5011030;28;20045;-89
2022/05/20 12:02:56;;;;;;;3.40;2.20;;;46.80;44.50;;;;;;5008148;28;20057;-90
2022/05/20 12:05:26;;;;;;;3.20;2.28;;;46.50;44.70;;;;;;5012017;28;20336;-89
2022/05/20 12:07:53;;;;;;;5.32;2.65;;;46.10;44.70;;;;;;5002394;28;20378;-89
2022/05/20 12:10:31;;;;;;;4.07;2.40;;;46.00;45.10;;;;;;5006411;28;20026;-90
2022/05/20 12:13:07;;;;;;;6.60;2.40;;;46.50;44.90;;;;;;5004189;28;20098;-89
2022/05/20 12:16:01;;;;;;;4.15;2.97;;;46.90;44.30;;;;;;5014545;28;20083;-90
2022/05/20 12:24:49;;;;;;;5.82;4.20;;;48.20;43.40;;;;;;5016383;28;20058;-88
2022/05/20 12:27:22;;;;;;;7.20;2.75;;;47.80;43.50;;;;;;5009617;28;20537;-90
2022/05/20 12:30:06;;;;;;;2.55;2.35;;;48.00;43.10;;;;;;5008695;28;20030;-89
2022/05/20 12:32:35;;;;;;;4.95;2.95;;;48.20;43.20;;;;;;5018122;28;20030;-91
2022/05/20 12:35:05;;;;;;;8.10;2.60;;;47.10;43.30;;;;;;5016747;28;20026;-90
2022/05/20 12:37:46;;;;;;;12.50;2.78;;;45.70;43.80;;;;;;5016869;28;20161;-89
2022/05/20 12:40:19;;;;;;;6.38;2.95;;;44.80;44.50;;;;;;5017397;28;20025;-91
2022/05/20 12:43:06;;;;;;;5.50;2.85;;;44.60;44.70;;;;;;5018083;28;20022;-90
2022/05/20 12:45:55;;;;;;;7.05;2.67;;;44.40;44.80;;;;;;5017902;28;20026;-90
2022/05/20 12:48:28;;;;;;;9.45;2.80;;;44.50;44.90;;;;;;5017464;28;20018;-89
2022/05/20 12:51:02;;;;;;;;;;;44.80;44.70;;;;;;5011912;28;20042;-89
2022/05/20 12:53:30;;;;;;;5.75;2.78;;;45.50;44.10;;;;;;5006757;28;20421;-89
2022/05/20 12:55:57;;;;;;;5.43;3.30;;;45.70;44.00;;;;;;5017437;28;20022;-90
2022/05/20 12:58:28;;;;;;;6.53;4.70;;;44.80;44.40;;;;;;5016516;28;20061;-89
2022/05/20 13:00:58;;;;;;;4.80;3.25;;;44.80;44.40;;;;;;5017908;28;20027;-90
2022/05/20 13:03:41;;;;;;;5.30;3.47;;;45.40;44.40;;;;;;5018084;28;20018;-90
2022/05/20 13:06:15;;;;;;;7.78;3.53;;;44.50;44.90;;;;;;5018196;28;20018;-90
2022/05/20 13:08:41;;;;;;;10.05;3.08;;;43.70;45.00;;;;;;5020580;28;20263;-89
2022/05/20 13:11:09;;;;;;;7.40;3.05;;;42.70;45.70;;;;;;5020896;28;20014;-90
2022/05/20 13:13:37;;;;;;;9.18;3.70;;;40.90;47.00;;;;;;5020471;28;20046;-89
2022/05/20 13:16:06;;;;;;;6.57;3.20;;;39.50;48.20;;;;;;5021195;28;20010;-90
2022/05/20 13:18:35;;;;;;;4.55;3.03;;;40.20;48.30;;;;;;5020684;28;20033;-88
2022/05/20 13:21:06;;;;;;;7.68;2.70;;;41.40;47.50;;;;;;5021670;28;20041;-91
2022/05/20 13:23:39;;;;;;;4.22;2.78;;;42.00;46.70;;;;;;5020613;28;20026;-89
2022/05/20 13:26:11;;;;;;;4.03;2.78;;;42.60;47.10;;;;;;5021108;28;20038;-89
2022/05/20 13:28:38;;;;;;;10.55;3.22;;;42.70;46.30;;;;;;5021063;28;20066;-90
2022/05/20 13:31:05;;;;;;;10.70;3.38;;;43.20;46.10;;;;;;5020609;28;20027;-90
2022/05/20 13:33:35;;;;;;;7.00;3.70;;;42.30;46.10;;;;;;5020830;28;20026;-90
2022/05/20 13:36:04;;;;;;;8.93;3.45;;;40.80;47.30;;;;;;5020682;28;20022;-90
2022/05/20 13:38:40;;;;;;;6.88;3.58;;;40.60;47.90;;;;;;5020647;28;20029;-90
2022/05/20 13:41:10;;;;;;;9.15;3.47;;;41.10;47.80;;;;;;5020787;28;20112;-91
2022/05/20 13:43:38;;;;;;;6.53;3.13;;;41.70;47.30;;;;;;5020434;28;20057;-88
2022/05/20 13:52:04;;;;;;;5.93;3.42;;;40.70;47.90;;;;;;5020259;28;20030;-89
2022/05/20 13:54:49;;;;;;;4.72;3.00;;;40.60;48.20;;;;;;5014882;28;20058;-89